Time;durP1;ratioP1;P1;durP2;ratioP2;P2;SDS_P1;SDS_P2;PMS_P1;PMS_P2;Temp;Humidity;BMP_temperature;BMP_pressure;BME280_temperature;BME280_humidity;BME280_pressure;Samples;Min_cycle;Max_cycle;Signal;HPM_P1;HPM_P2
2022/07/17 00:00:00;;;;;;;5.72;1.20;;;12.40;99.90;;;;;;5038493;28;20049;-70
2022/07/17 00:02:26;;;;;;;5.90;1.40;;;12.30;99.90;;;;;;5020225;28;20046;-69
2022/07/17 00:04:52;;;;;;;5.28;1.52;;;12.20;99.90;;;;;;5033570;28;20053;-73
2022/07/17 00:07:18;;;;;;;9.02;1.33;;;12.10;99.90;;;;;;5034527;28;20049;-69
2022/07/17 00:09:44;;;;;;;9.02;1.58;;;12.00;99.90;;;;;;5039716;28;21125;-68
2022/07/17 00:12:09;;;;;;;7.88;1.20;;;11.90;99.90;;;;;;5019735;28;20068;-71
2022/07/17 00:14:35;;;;;;;8.20;1.65;;;11.80;99.90;;;;;;5017157;28;20044;-71
2022/07/17 00:17:02;;;;;;;8.85;1.63;;;11.80;99.90;;;;;;5016138;28;20053;-68
2022/07/17 00:19:27;;;;;;;7.55;1.33;;;11.70;99.90;;;;;;5041158;28;20079;-69
2022/07/17 00:21:53;;;;;;;10.80;1.90;;;11.60;99.90;;;;;;5045246;28;20128;-69
2022/07/17 00:24:22;;;;;;;12.40;2.70;;;11.60;99.90;;;;;;5036007;28;20041;-69
2022/07/17 00:26:48;;;;;;;6.82;2.17;;;11.50;99.90;;;;;;5040954;28;20048;-69
2022/07/17 00:29:14;;;;;;;8.07;1.95;;;11.50;99.90;;;;;;5033899;28;20036;-71
2022/07/17 00:31:39;;;;;;;9.23;1.60;;;11.40;99.90;;;;;;5018409;28;20044;-72
2022/07/17 00:34:05;;;;;;;8.80;1.70;;;11.40;99.90;;;;;;5042117;28;20033;-71
2022/07/17 00:36:31;;;;;;;10.35;2.05;;;11.40;99.90;;;;;;5023291;28;20588;-71
2022/07/17 00:38:56;;;;;;;7.50;2.10;;;11.40;99.90;;;;;;5042709;28;20036;-70
2022/07/17 00:41:22;;;;;;;6.05;2.05;;;11.40;99.90;;;;;;5024160;28;20149;-73
2022/07/17 00:43:48;;;;;;;12.98;2.63;;;11.30;99.90;;;;;;5019139;28;20044;-70
2022/07/17 00:46:13;;;;;;;6.55;1.85;;;11.20;99.90;;;;;;5036821;28;20048;-70
2022/07/17 00:48:39;;;;;;;4.95;2.40;;;11.20;99.90;;;;;;5014086;28;20053;-70
2022/07/17 00:51:05;;;;;;;10.52;1.80;;;11.20;99.90;;;;;;5036719;28;20978;-69
2022/07/17 00:53:35;;;;;;;9.05;2.35;;;11.20;99.90;;;;;;5040368;28;20467;-68
2022/07/17 00:56:05;;;;;;;8.00;2.38;;;11.20;99.90;;;;;;5033379;28;20048;-70
2022/07/17 00:58:34;;;;;;;9.50;1.90;;;11.20;99.90;;;;;;5016481;28;20036;-69
2022/07/17 01:01:06;;;;;;;5.75;2.15;;;11.20;99.90;;;;;;5035727;28;20048;-70
2022/07/17 01:03:32;;;;;;;6.85;2.20;;;11.20;99.90;;;;;;5033609;28;20051;-71
2022/07/17 01:05:58;;;;;;;6.38;2.22;;;11.10;99.90;;;;;;5014961;28;20063;-70
2022/07/17 01:08:24;;;;;;;7.43;2.40;;;11.10;99.90;;;;;;5037450;28;21159;-70
2022/07/17 01:10:50;;;;;;;6.90;2.55;;;11.10;99.90;;;;;;5034329;28;20047;-68
2022/07/17 01:13:16;;;;;;;7.55;2.45;;;11.00;99.90;;;;;;4997314;28;20053;-71
2022/07/17 01:15:42;;;;;;;6.40;2.25;;;11.00;99.90;;;;;;5017226;28;20359;-69
2022/07/17 01:18:13;;;;;;;7.97;2.50;;;11.00;99.90;;;;;;5016251;28;20041;-72
2022/07/17 01:20:42;;;;;;;7.57;2.75;;;10.90;99.90;;;;;;5034549;28;20056;-70
2022/07/17 01:23:09;;;;;;;8.40;2.50;;;11.00;99.90;;;;;;5015826;28;20150;-70
2022/07/17 01:25:35;;;;;;;8.20;2.47;;;10.90;99.90;;;;;;5030124;28;20106;-69
2022/07/17 01:28:01;;;;;;;6.53;2.45;;;10.90;99.90;;;;;;5034972;28;20051;-69
2022/07/17 01:30:28;;;;;;;10.98;2.33;;;10.90;99.90;;;;;;5016125;28;20064;-70
2022/07/17 01:32:53;;;;;;;9.85;2.50;;;10.80;99.90;;;;;;5012559;28;20045;-69
2022/07/17 01:35:19;;;;;;;5.38;2.55;;;10.80;99.90;;;;;;5032851;28;20039;-68
2022/07/17 01:37:46;;;;;;;9.10;2.53;;;10.70;99.90;;;;;;5039900;28;20055;-71
2022/07/17 01:40:14;;;;;;;8.80;2.97;;;10.70;99.90;;;;;;5029652;28;20183;-71
2022/07/17 01:42:44;;;;;;;9.10;2.30;;;10.70;99.90;;;;;;5019286;28;20599;-70
2022/07/17 01:45:11;;;;;;;10.40;2.80;;;10.70;99.90;;;;;;5035324;28;20045;-70
2022/07/17 01:47:38;;;;;;;6.95;2.38;;;10.80;99.90;;;;;;5016972;28;20041;-70
2022/07/17 01:50:05;;;;;;;9.20;2.42;;;10.70;99.90;;;;;;5033748;28;20056;-69
2022/07/17 01:52:34;;;;;;;9.02;2.20;;;10.80;99.90;;;;;;5034416;28;20125;-69
2022/07/17 01:55:00;;;;;;;9.15;2.58;;;10.80;99.90;;;;;;5035640;28;20157;-70
2022/07/17 01:57:25;;;;;;;11.23;2.70;;;10.80;99.90;;;;;;5036245;28;20048;-70
2022/07/17 01:59:51;;;;;;;8.30;3.05;;;10.80;99.90;;;;;;5023234;28;20037;-70
2022/07/17 02:02:17;;;;;;;6.40;2.08;;;10.80;99.90;;;;;;5040250;28;20069;-70
2022/07/17 02:04:43;;;;;;;6.40;2.33;;;10.80;99.90;;;;;;5017623;28;20444;-69
2022/07/17 02:07:09;;;;;;;6.93;2.30;;;10.80;99.90;;;;;;5039088;28;20040;-69
2022/07/17 02:09:35;;;;;;;8.18;2.80;;;10.70;99.90;;;;;;5035474;28;20584;-69
2022/07/17 02:12:01;;;;;;;11.15;2.72;;;10.70;99.90;;;;;;5012170;28;20044;-70
2022/07/17 02:14:27;;;;;;;7.65;2.88;;;10.70;99.90;;;;;;5033306;28;20153;-70
2022/07/17 02:16:53;;;;;;;7.88;2.78;;;10.70;99.90;;;;;;5004439;28;20049;-71
2022/07/17 02:19:19;;;;;;;6.38;2.67;;;10.70;99.90;;;;;;5034424;28;20045;-68
2022/07/17 02:21:44;;;;;;;7.45;2.75;;;10.60;99.90;;;;;;5033134;28;21399;-68
2022/07/17 02:24:10;;;;;;;9.32;3.13;;;10.60;99.90;;;;;;5011581;28;20450;-71
2022/07/17 02:26:36;;;;;;;7.32;2.65;;;10.60;99.90;;;;;;5030636;28;20132;-71
2022/07/17 02:29:02;;;;;;;10.43;3.20;;;10.60;99.90;;;;;;5036565;28;20895;-70
2022/07/17 02:31:27;;;;;;;10.02;3.72;;;10.60;99.90;;;;;;5017782;28;20052;-69
2022/07/17 02:33:53;;;;;;;10.65;3.67;;;10.50;99.90;;;;;;5019958;28;20053;-70
2022/07/17 02:36:19;;;;;;;9.98;3.75;;;10.50;99.90;;;;;;5032275;28;20051;-69
2022/07/17 02:38:44;;;;;;;10.50;3.08;;;10.50;99.90;;;;;;5019838;28;20044;-72
2022/07/17 02:41:10;;;;;;;6.05;2.83;;;10.50;99.90;;;;;;5016203;28;20515;-69
2022/07/17 02:43:36;;;;;;;10.57;3.42;;;10.50;99.90;;;;;;5010557;28;20048;-70
2022/07/17 02:46:03;;;;;;;8.02;3.40;;;10.50;99.90;;;;;;5030137;28;20044;-70
2022/07/17 02:48:28;;;;;;;6.68;3.33;;;10.50;99.90;;;;;;5013629;28;20438;-72
2022/07/17 02:50:54;;;;;;;8.10;3.20;;;10.60;99.90;;;;;;5017728;28;20048;-69
2022/07/17 02:53:20;;;;;;;6.15;3.38;;;10.60;99.90;;;;;;5017607;28;20580;-69
2022/07/17 02:55:45;;;;;;;7.47;2.90;;;10.60;99.90;;;;;;4994936;28;20056;-70
2022/07/17 02:58:11;;;;;;;7.88;3.20;;;10.60;99.90;;;;;;5031105;28;20049;-71
2022/07/17 03:00:37;;;;;;;9.80;3.33;;;10.70;99.90;;;;;;5028082;28;20041;-69
2022/07/17 03:03:03;;;;;;;5.70;3.20;;;10.70;99.90;;;;;;5029605;28;20094;-69
2022/07/17 03:05:29;;;;;;;8.45;3.20;;;10.60;99.90;;;;;;5012206;28;20080;-69
2022/07/17 03:07:55;;;;;;;10.45;3.30;;;10.60;99.90;;;;;;5018950;28;20047;-69
2022/07/17 03:10:20;;;;;;;7.70;3.28;;;10.60;99.90;;;;;;5029392;28;20667;-70
2022/07/17 03:12:46;;;;;;;8.82;3.20;;;10.70;99.90;;;;;;5014782;28;20056;-71
2022/07/17 03:15:12;;;;;;;9.70;3.38;;;10.60;99.90;;;;;;5031492;28;20456;-70
2022/07/17 03:17:39;;;;;;;7.65;3.00;;;10.60;99.90;;;;;;5037610;28;20061;-70
2022/07/17 03:20:06;;;;;;;7.82;3.17;;;10.60;99.90;;;;;;5020513;28;20053;-69
2022/07/17 03:22:31;;;;;;;7.80;3.25;;;10.60;99.90;;;;;;5014396;28;21026;-70
2022/07/17 03:24:57;;;;;;;9.10;3.70;;;10.60;99.90;;;;;;5028961;28;20124;-69
2022/07/17 03:27:22;;;;;;;7.80;3.40;;;10.70;99.90;;;;;;4998356;28;20123;-70
2022/07/17 03:29:48;;;;;;;10.85;3.50;;;10.70;99.90;;;;;;5030630;28;20533;-70
2022/07/17 03:32:14;;;;;;;11.15;3.50;;;10.80;99.90;;;;;;5029603;28;20049;-70
2022/07/17 03:34:40;;;;;;;9.10;2.90;;;10.80;99.90;;;;;;5015108;28;20119;-70
2022/07/17 03:37:06;;;;;;;6.68;3.03;;;10.80;99.90;;;;;;5013406;28;20045;-72
2022/07/17 03:39:32;;;;;;;9.40;3.63;;;10.90;99.90;;;;;;5038721;28;20045;-69
2022/07/17 03:41:57;;;;;;;8.55;3.13;;;10.90;99.90;;;;;;5016231;28;20044;-71
2022/07/17 03:44:23;;;;;;;7.63;3.03;;;11.00;99.90;;;;;;5014115;28;20072;-69
2022/07/17 03:46:49;;;;;;;9.18;3.30;;;11.00;99.90;;;;;;5038249;28;20601;-71
2022/07/17 03:49:15;;;;;;;6.78;2.95;;;11.10;99.90;;;;;;5016558;28;20045;-71
2022/07/17 03:51:41;;;;;;;5.55;3.00;;;11.10;99.90;;;;;;5031389;28;20460;-70
2022/07/17 03:54:06;;;;;;;7.68;3.03;;;11.20;99.90;;;;;;5035643;28;20043;-72
2022/07/17 03:56:32;;;;;;;6.20;2.70;;;11.20;99.90;;;;;;5038246;28;20881;-70
2022/07/17 03:58:58;;;;;;;10.35;3.35;;;11.30;99.90;;;;;;5039202;28;20062;-70
2022/07/17 04:01:24;;;;;;;7.45;3.15;;;11.30;99.90;;;;;;5018513;28;20088;-71
2022/07/17 04:03:50;;;;;;;6.35;2.85;;;11.40;99.90;;;;;;5033016;28;20131;-71
2022/07/17 04:06:15;;;;;;;7.47;2.95;;;11.40;99.90;;;;;;5018268;28;20685;-70
2022/07/17 04:08:41;;;;;;;7.65;3.28;;;11.40;99.90;;;;;;5033583;28;20565;-70
2022/07/17 04:11:07;;;;;;;12.05;3.35;;;11.50;99.90;;;;;;5019892;28;20670;-71
2022/07/17 04:13:32;;;;;;;7.05;3.00;;;11.50;99.90;;;;;;5014671;28;20045;-71
2022/07/17 04:16:00;;;;;;;9.48;2.92;;;11.50;99.90;;;;;;4997884;28;20033;-70
2022/07/17 04:18:31;;;;;;;8.27;2.88;;;11.60;99.90;;;;;;5034678;28;20046;-72
2022/07/17 04:21:09;;;;;;;9.63;2.55;;;11.60;99.90;;;;;;5013757;28;20044;-72
2022/07/17 04:23:35;;;;;;;7.40;2.83;;;11.70;99.90;;;;;;5032588;28;20033;-71
2022/07/17 04:26:01;;;;;;;10.77;2.50;;;11.70;99.90;;;;;;5038995;28;20049;-70
2022/07/17 04:28:27;;;;;;;10.02;2.40;;;11.80;99.90;;;;;;5019282;28;20040;-70
2022/07/17 04:30:53;;;;;;;9.82;2.45;;;11.80;99.90;;;;;;5034924;28;20060;-70
2022/07/17 04:33:19;;;;;;;5.93;2.20;;;11.90;99.90;;;;;;5017452;28;20041;-71
2022/07/17 04:35:44;;;;;;;10.48;3.22;;;12.00;99.90;;;;;;5035976;28;20134;-71
2022/07/17 04:38:11;;;;;;;9.13;2.80;;;12.00;99.90;;;;;;5039797;28;20054;-70
2022/07/17 04:40:38;;;;;;;10.38;2.63;;;12.10;99.90;;;;;;5033650;28;20094;-70
2022/07/17 04:43:04;;;;;;;8.23;2.28;;;12.10;99.90;;;;;;5033556;28;20873;-71
2022/07/17 04:45:31;;;;;;;8.45;2.63;;;12.20;99.90;;;;;;5018068;28;20079;-70
2022/07/17 04:47:57;;;;;;;9.98;2.60;;;12.20;99.90;;;;;;5036877;28;20045;-70
2022/07/17 04:50:23;;;;;;;7.78;2.50;;;12.30;99.90;;;;;;5034495;28;20203;-69
2022/07/17 04:52:49;;;;;;;9.80;2.63;;;12.30;99.90;;;;;;5034948;28;20048;-68
2022/07/17 04:55:14;;;;;;;4.75;2.05;;;12.40;99.90;;;;;;5016989;28;20053;-69
2022/07/17 04:57:40;;;;;;;9.30;2.22;;;12.40;99.90;;;;;;5003596;28;20052;-70
2022/07/17 05:00:08;;;;;;;7.40;2.33;;;12.50;99.90;;;;;;5016472;28;20040;-70
2022/07/17 05:02:34;;;;;;;6.47;1.83;;;12.50;99.90;;;;;;5034376;28;20079;-70
2022/07/17 05:05:02;;;;;;;7.30;1.73;;;12.60;99.90;;;;;;5030154;28;20463;-74
2022/07/17 05:07:28;;;;;;;10.15;2.00;;;12.60;99.90;;;;;;5017122;28;20081;-70
2022/07/17 05:09:54;;;;;;;6.25;1.63;;;12.60;99.90;;;;;;5019753;28;21344;-69
2022/07/17 05:12:19;;;;;;;8.68;2.25;;;12.70;99.90;;;;;;5001183;28;20050;-70
2022/07/17 05:14:45;;;;;;;7.90;1.80;;;12.80;99.90;;;;;;5037358;28;20597;-73
2022/07/17 05:17:11;;;;;;;9.48;1.45;;;12.90;99.90;;;;;;5033163;28;20044;-71
2022/07/17 05:19:37;;;;;;;7.47;1.60;;;12.90;99.90;;;;;;5032056;28;20701;-69
2022/07/17 05:22:04;;;;;;;8.32;1.70;;;13.00;99.90;;;;;;5017091;28;20436;-71
2022/07/17 05:24:29;;;;;;;10.38;2.15;;;13.10;99.90;;;;;;5038021;28;20123;-71
2022/07/17 05:26:55;;;;;;;9.65;1.70;;;13.10;99.90;;;;;;5015108;28;20046;-69
2022/07/17 05:29:21;;;;;;;5.90;1.77;;;13.20;99.90;;;;;;5034621;28;20111;-70
2022/07/17 05:31:47;;;;;;;7.32;1.60;;;13.20;99.90;;;;;;5014200;28;20674;-70
2022/07/17 05:34:13;;;;;;;7.25;1.55;;;13.30;99.90;;;;;;4998220;28;20056;-71
2022/07/17 05:36:38;;;;;;;7.35;1.40;;;13.40;99.90;;;;;;5000359;28;21066;-69
2022/07/17 05:39:04;;;;;;;8.98;1.85;;;13.50;99.90;;;;;;5032114;28;20091;-71
2022/07/17 05:41:30;;;;;;;5.22;1.35;;;13.50;99.90;;;;;;5031985;28;20049;-70
2022/07/17 05:43:55;;;;;;;5.97;1.50;;;13.60;99.90;;;;;;5035530;28;20679;-71
2022/07/17 05:46:21;;;;;;;7.75;1.40;;;13.80;99.90;;;;;;5017848;28;20047;-70
2022/07/17 05:48:47;;;;;;;8.10;1.33;;;14.10;99.90;;;;;;5031387;28;20079;-71
2022/07/17 05:51:12;;;;;;;6.53;1.40;;;14.70;99.90;;;;;;5018604;28;20074;-70
2022/07/17 05:53:38;;;;;;;6.38;1.00;;;14.90;99.90;;;;;;5015973;28;20044;-70
2022/07/17 05:56:04;;;;;;;9.25;1.23;;;15.00;99.90;;;;;;5014912;28;20036;-70
2022/07/17 05:58:29;;;;;;;10.07;1.30;;;14.80;99.90;;;;;;5003404;28;20059;-70
2022/07/17 06:00:55;;;;;;;4.50;0.88;;;14.70;99.90;;;;;;5028936;28;20128;-70
2022/07/17 06:03:21;;;;;;;5.50;1.02;;;14.70;99.90;;;;;;5020945;28;20123;-70
2022/07/17 06:05:47;;;;;;;8.15;1.20;;;14.80;99.90;;;;;;5032951;28;20048;-71
2022/07/17 06:08:12;;;;;;;8.35;1.33;;;14.90;99.90;;;;;;4996128;28;20768;-70
2022/07/17 06:10:38;;;;;;;6.60;1.33;;;14.90;99.90;;;;;;5036091;28;20414;-70
2022/07/17 06:13:05;;;;;;;4.68;1.20;;;14.90;99.90;;;;;;5016801;28;20049;-71
2022/07/17 06:15:30;;;;;;;4.55;1.13;;;14.90;99.90;;;;;;5037289;28;20045;-69
2022/07/17 06:18:04;;;;;;;5.47;1.05;;;15.00;99.90;;;;;;5013449;28;20037;-71
2022/07/17 06:20:30;;;;;;;7.75;1.80;;;15.20;99.90;;;;;;5031822;28;20045;-71
2022/07/17 06:22:57;;;;;;;6.25;1.00;;;15.30;99.90;;;;;;5014107;28;20199;-70
2022/07/17 06:25:24;;;;;;;5.85;1.00;;;15.40;99.90;;;;;;5031572;28;20566;-70
2022/07/17 06:27:50;;;;;;;5.50;0.80;;;15.50;99.90;;;;;;5013050;28;20148;-71
2022/07/17 06:30:16;;;;;;;4.97;0.80;;;15.60;99.90;;;;;;5012971;28;20052;-71
2022/07/17 06:32:43;;;;;;;7.82;1.23;;;15.70;99.90;;;;;;5034649;28;20705;-71
2022/07/17 06:35:09;;;;;;;11.10;1.10;;;15.80;99.90;;;;;;5033031;28;20052;-70
2022/07/17 06:37:36;;;;;;;8.82;0.90;;;15.90;99.90;;;;;;5034451;28;20052;-70
2022/07/17 06:40:03;;;;;;;4.55;0.60;;;16.00;99.90;;;;;;5033372;28;20068;-70
2022/07/17 06:42:29;;;;;;;6.35;0.70;;;16.10;99.90;;;;;;5038644;28;20043;-71
2022/07/17 06:44:54;;;;;;;5.93;0.60;;;16.00;99.90;;;;;;5014553;28;20564;-72
2022/07/17 06:47:20;;;;;;;6.10;0.60;;;16.20;99.90;;;;;;5033226;28;20503;-70
2022/07/17 06:49:46;;;;;;;6.22;0.80;;;16.20;99.90;;;;;;5030917;28;20137;-71
2022/07/17 06:52:11;;;;;;;4.57;0.70;;;16.30;99.90;;;;;;5031149;28;20044;-70
2022/07/17 06:54:37;;;;;;;4.03;0.50;;;16.30;99.90;;;;;;5035340;28;20504;-70
2022/07/17 06:57:03;;;;;;;5.13;0.60;;;16.40;99.90;;;;;;5032672;28;20559;-70
2022/07/17 06:59:28;;;;;;;8.13;0.70;;;16.40;99.90;;;;;;5016579;28;20045;-69
2022/07/17 07:01:54;;;;;;;7.03;0.80;;;16.50;99.90;;;;;;4998678;28;20491;-71
2022/07/17 07:04:20;;;;;;;5.35;0.50;;;16.50;99.90;;;;;;5031179;28;20102;-72
2022/07/17 07:06:46;;;;;;;4.47;0.60;;;16.50;99.90;;;;;;5039987;28;20751;-70
2022/07/17 07:09:11;;;;;;;6.05;0.70;;;16.50;99.90;;;;;;5000576;28;20041;-69
2022/07/17 07:11:38;;;;;;;5.40;0.43;;;16.60;99.90;;;;;;5041365;28;20535;-71
2022/07/17 07:14:04;;;;;;;6.70;0.65;;;16.70;99.90;;;;;;5037004;28;20036;-69
2022/07/17 07:16:30;;;;;;;4.93;0.82;;;16.80;99.90;;;;;;5039390;28;20041;-70
2022/07/17 07:18:56;;;;;;;5.30;0.70;;;16.80;99.90;;;;;;5039572;28;20715;-71
2022/07/17 07:21:22;;;;;;;5.05;0.75;;;16.80;99.90;;;;;;5036876;28;20056;-70
2022/07/17 07:23:49;;;;;;;5.25;0.50;;;16.80;99.90;;;;;;5037419;28;20040;-70
2022/07/17 07:26:14;;;;;;;5.55;0.63;;;16.90;99.90;;;;;;5042222;28;20048;-72
2022/07/17 07:28:40;;;;;;;6.75;0.50;;;16.90;99.90;;;;;;5002307;28;20067;-71
2022/07/17 07:31:06;;;;;;;3.13;0.50;;;16.90;99.90;;;;;;5038327;28;20036;-69
2022/07/17 07:33:31;;;;;;;6.35;1.13;;;16.90;99.90;;;;;;5038988;28;20033;-71
2022/07/17 07:35:57;;;;;;;6.93;0.75;;;17.00;99.90;;;;;;5021080;28;20048;-70
2022/07/17 07:38:23;;;;;;;6.10;1.00;;;17.10;99.90;;;;;;5040416;28;20041;-70
2022/07/17 07:40:49;;;;;;;23.83;15.60;;;17.20;99.90;;;;;;5046166;28;20647;-70
2022/07/17 07:43:15;;;;;;;46.78;36.67;;;17.40;99.90;;;;;;5038868;28;20036;-71
2022/07/17 07:45:40;;;;;;;4.97;0.98;;;17.40;99.90;;;;;;5041154;28;20048;-70
2022/07/17 07:48:06;;;;;;;7.47;2.03;;;17.30;99.90;;;;;;5020294;28;20103;-71
2022/07/17 07:50:32;;;;;;;9.60;4.25;;;17.60;99.90;;;;;;5023720;28;20036;-72
2022/07/17 07:52:57;;;;;;;6.38;1.70;;;17.90;99.90;;;;;;5022826;28;20346;-69
2022/07/17 07:55:23;;;;;;;9.48;0.98;;;18.20;99.90;;;;;;5038887;28;20049;-69
2022/07/17 07:57:49;;;;;;;5.68;0.60;;;18.50;99.90;;;;;;5019319;28;20029;-70
2022/07/17 08:00:16;;;;;;;4.13;0.57;;;18.80;99.90;;;;;;5033969;28;20071;-72
2022/07/17 08:02:41;;;;;;;8.02;1.25;;;19.10;99.90;;;;;;5034562;28;20040;-72
2022/07/17 08:05:08;;;;;;;54.67;39.35;;;19.20;99.90;;;;;;5030131;28;20067;-70
2022/07/17 08:07:36;;;;;;;16.13;9.52;;;19.00;99.90;;;;;;5036820;28;20140;-69
2022/07/17 08:10:03;;;;;;;27.08;16.35;;;19.00;99.90;;;;;;5033379;28;20068;-70
2022/07/17 08:12:29;;;;;;;13.88;5.70;;;19.10;99.90;;;;;;5034639;28;20052;-70
2022/07/17 08:14:55;;;;;;;17.00;8.27;;;19.40;99.90;;;;;;5031298;28;20083;-70
2022/07/17 08:17:20;;;;;;;8.55;1.73;;;19.50;99.90;;;;;;5037176;28;20040;-70
2022/07/17 08:19:46;;;;;;;4.65;2.08;;;19.60;99.90;;;;;;5017407;28;20048;-71
2022/07/17 08:22:12;;;;;;;6.63;1.88;;;19.80;99.90;;;;;;5034038;28;20041;-72
2022/07/17 08:24:38;;;;;;;10.45;4.88;;;19.90;99.90;;;;;;5031651;28;20505;-71
2022/07/17 08:27:04;;;;;;;6.07;1.20;;;20.00;99.90;;;;;;5034787;28;20049;-71
2022/07/17 08:29:30;;;;;;;6.20;0.52;;;20.20;99.90;;;;;;5034483;28;20051;-70
2022/07/17 08:31:56;;;;;;;5.55;0.55;;;20.40;99.90;;;;;;5038465;28;20090;-69
2022/07/17 08:34:22;;;;;;;3.92;0.43;;;20.50;99.90;;;;;;5036616;28;20045;-70
2022/07/17 08:36:47;;;;;;;6.90;0.50;;;20.70;99.90;;;;;;5039253;28;20057;-70
2022/07/17 08:39:13;;;;;;;6.13;0.40;;;20.70;99.90;;;;;;5019848;28;20064;-73
2022/07/17 08:41:39;;;;;;;4.03;0.45;;;20.70;99.90;;;;;;5035627;28;20665;-72
2022/07/17 08:44:07;;;;;;;5.53;0.50;;;20.90;99.90;;;;;;5035667;28;20045;-72
2022/07/17 08:46:37;;;;;;;4.18;0.50;;;20.90;99.90;;;;;;5033550;28;20072;-70
2022/07/17 08:49:04;;;;;;;3.33;0.40;;;20.90;99.90;;;;;;5030772;28;20045;-71
2022/07/17 08:51:30;;;;;;;2.67;0.40;;;20.90;99.90;;;;;;5034259;28;20044;-70
2022/07/17 08:53:57;;;;;;;4.43;0.45;;;21.00;99.90;;;;;;5041604;28;20658;-71
2022/07/17 08:56:23;;;;;;;4.20;0.40;;;20.90;99.90;;;;;;5036674;28;20033;-70
2022/07/17 08:58:49;;;;;;;4.43;0.45;;;21.00;99.90;;;;;;5035059;28;20054;-70
2022/07/17 09:01:16;;;;;;;4.80;0.40;;;21.40;99.90;;;;;;5014978;28;20041;-72
2022/07/17 09:03:57;;;;;;;4.88;0.40;;;21.70;99.90;;;;;;5019303;28;20051;-69
2022/07/17 09:06:24;;;;;;;3.90;0.38;;;21.90;99.90;;;;;;5031346;28;20790;-72
2022/07/17 09:09:07;;;;;;;6.07;0.40;;;22.10;99.90;;;;;;5040736;28;20457;-70
2022/07/17 09:11:51;;;;;;;6.35;0.57;;;22.10;99.90;;;;;;5013078;28;20057;-70
2022/07/17 09:14:19;;;;;;;3.72;0.43;;;22.20;99.90;;;;;;5027399;28;20110;-70
2022/07/17 09:17:04;;;;;;;4.93;0.43;;;22.00;99.90;;;;;;5048782;28;20052;-72
2022/07/17 09:19:36;;;;;;;4.32;0.40;;;21.80;99.90;;;;;;5036911;28;20440;-73
2022/07/17 09:22:15;;;;;;;3.20;0.40;;;22.10;99.90;;;;;;5033653;28;20045;-71
2022/07/17 09:24:55;;;;;;;3.85;0.40;;;22.40;99.90;;;;;;5021042;28;20071;-70
2022/07/17 09:27:24;;;;;;;8.70;0.70;;;22.40;99.90;;;;;;5036980;28;20076;-69
2022/07/17 09:29:54;;;;;;;5.50;0.43;;;22.60;99.90;;;;;;5016856;28;20124;-70
2022/07/17 09:32:23;;;;;;;4.07;0.40;;;23.10;99.90;;;;;;5032470;28;20045;-70
2022/07/17 09:34:50;;;;;;;6.05;0.50;;;23.30;99.90;;;;;;5035017;28;20622;-69
2022/07/17 09:37:16;;;;;;;6.03;0.43;;;23.20;99.90;;;;;;5036072;28;20115;-70
2022/07/17 09:39:42;;;;;;;4.95;0.40;;;23.50;99.90;;;;;;5014188;28;20725;-72
2022/07/17 09:42:08;;;;;;;3.85;0.50;;;23.60;99.90;;;;;;5034121;28;20048;-70
2022/07/17 09:44:34;;;;;;;4.80;0.30;;;23.90;99.90;;;;;;5015830;28;20112;-71
2022/07/17 09:47:01;;;;;;;5.93;0.40;;;23.70;99.90;;;;;;5034930;28;20479;-70
2022/07/17 09:49:28;;;;;;;4.63;0.40;;;23.30;99.90;;;;;;5035256;28;20455;-70
2022/07/17 09:51:54;;;;;;;3.08;0.30;;;23.50;99.90;;;;;;5016274;28;20049;-70
2022/07/17 09:54:23;;;;;;;4.13;0.40;;;23.30;99.90;;;;;;4999583;28;20101;-70
2022/07/17 09:56:58;;;;;;;2.92;0.30;;;23.50;99.90;;;;;;5035959;28;20052;-71
2022/07/17 09:59:26;;;;;;;3.25;0.40;;;23.50;99.90;;;;;;5036937;28;20048;-70
2022/07/17 10:01:52;;;;;;;5.65;0.75;;;23.50;99.90;;;;;;5035175;28;20462;-73
2022/07/17 10:04:18;;;;;;;1.90;0.30;;;23.30;99.90;;;;;;5041269;28;21130;-71
2022/07/17 10:06:44;;;;;;;4.07;0.60;;;23.10;99.90;;;;;;5019292;28;20136;-71
2022/07/17 10:09:10;;;;;;;3.97;0.40;;;23.20;99.90;;;;;;5021845;28;20075;-72
2022/07/17 10:11:38;;;;;;;3.90;0.40;;;23.70;99.90;;;;;;5020340;28;20152;-72
2022/07/17 10:14:08;;;;;;;6.55;0.43;;;23.90;99.90;;;;;;5035596;28;20110;-71
2022/07/17 10:16:38;;;;;;;3.85;0.40;;;24.20;99.90;;;;;;5036106;28;20780;-72
2022/07/17 10:19:22;;;;;;;4.15;0.50;;;24.30;99.90;;;;;;5019231;28;20052;-71
2022/07/17 10:21:59;;;;;;;2.63;0.30;;;24.30;99.90;;;;;;5036182;28;20055;-71
2022/07/17 10:24:27;;;;;;;3.05;0.45;;;24.10;99.90;;;;;;5035790;28;21160;-70
2022/07/17 10:26:53;;;;;;;3.58;0.70;;;23.80;99.90;;;;;;5035618;28;20053;-71
2022/07/17 10:29:37;;;;;;;1.50;0.30;;;23.60;99.90;;;;;;5032528;28;20040;-71
2022/07/17 10:32:08;;;;;;;4.85;0.40;;;23.70;99.90;;;;;;5033209;28;20074;-70
2022/07/17 10:34:48;;;;;;;4.22;0.50;;;23.90;99.90;;;;;;5033160;28;21251;-70
2022/07/17 10:37:24;;;;;;;5.45;0.47;;;24.00;99.90;;;;;;5030590;28;20117;-69
2022/07/17 10:40:05;;;;;;;5.60;0.40;;;24.00;99.90;;;;;;5033987;28;20044;-70
2022/07/17 10:42:49;;;;;;;4.22;0.32;;;24.00;99.90;;;;;;5037389;28;20029;-70
2022/07/17 10:45:18;;;;;;;3.38;0.30;;;24.40;99.90;;;;;;5020793;28;20052;-69
2022/07/17 10:47:47;;;;;;;9.48;0.65;;;24.20;99.50;;;;;;5036926;28;20048;-71
2022/07/17 10:50:14;;;;;;;4.47;0.73;;;24.40;98.00;;;;;;5017700;28;20103;-70
2022/07/17 10:52:39;;;;;;;3.85;0.30;;;24.20;99.90;;;;;;5034885;28;20049;-71
2022/07/17 10:55:16;;;;;;;2.20;0.32;;;24.50;99.90;;;;;;5034860;28;20040;-70
2022/07/17 10:57:42;;;;;;;4.22;0.40;;;24.60;99.90;;;;;;5038198;28;20136;-71
2022/07/17 11:00:11;;;;;;;3.53;0.40;;;24.80;97.90;;;;;;5035447;28;20053;-70
2022/07/17 11:02:36;;;;;;;2.58;0.30;;;24.90;98.20;;;;;;5004564;28;20629;-70
2022/07/17 11:05:10;;;;;;;3.75;0.40;;;25.10;97.90;;;;;;5023433;28;20132;-72
2022/07/17 11:07:36;;;;;;;2.75;0.32;;;25.40;96.40;;;;;;5037592;28;20061;-71
2022/07/17 11:10:02;;;;;;;4.07;0.50;;;25.60;97.50;;;;;;5036801;28;20037;-71
2022/07/17 11:12:34;;;;;;;2.88;0.43;;;25.80;93.90;;;;;;5034546;28;20090;-71
2022/07/17 11:15:04;;;;;;;5.35;0.50;;;25.80;92.40;;;;;;5020495;28;20790;-72
2022/07/17 11:17:30;;;;;;;4.32;0.50;;;25.90;95.10;;;;;;5020641;28;20053;-71
2022/07/17 11:19:58;;;;;;;3.55;0.30;;;25.70;93.70;;;;;;5003817;28;20072;-72
2022/07/17 11:22:24;;;;;;;2.83;0.55;;;25.30;93.40;;;;;;5037867;28;20047;-70
2022/07/17 11:24:50;;;;;;;2.35;0.40;;;24.90;94.60;;;;;;5038834;28;20160;-69
2022/07/17 11:27:24;;;;;;;2.45;0.30;;;25.00;95.00;;;;;;5037997;28;20124;-70
2022/07/17 11:29:54;;;;;;;2.38;0.30;;;25.20;93.20;;;;;;5020264;28;20645;-70
2022/07/17 11:32:20;;;;;;;3.97;0.30;;;25.40;95.10;;;;;;5044788;28;20238;-69
2022/07/17 11:34:46;;;;;;;6.28;0.50;;;25.40;93.60;;;;;;5041057;28;20446;-71
2022/07/17 11:37:12;;;;;;;3.10;0.30;;;25.50;92.50;;;;;;5040852;28;20262;-70
2022/07/17 11:39:42;;;;;;;2.95;0.50;;;25.70;91.70;;;;;;5018847;28;20492;-70
2022/07/17 11:42:09;;;;;;;2.85;0.30;;;25.70;93.20;;;;;;5024538;28;20053;-71
2022/07/17 11:44:35;;;;;;;3.97;0.30;;;26.00;93.20;;;;;;5028297;28;20360;-71
2022/07/17 11:47:01;;;;;;;2.05;0.32;;;25.90;91.90;;;;;;5038209;28;20041;-71
2022/07/17 11:49:40;;;;;;;5.38;0.60;;;25.90;91.40;;;;;;5029906;28;20518;-71
2022/07/17 11:52:14;;;;;;;2.45;0.30;;;26.10;90.90;;;;;;5025982;28;20041;-72
2022/07/17 11:54:51;;;;;;;10.50;2.42;;;26.10;92.10;;;;;;5009979;28;20143;-71
2022/07/17 11:57:18;;;;;;;5.82;0.50;;;26.50;92.40;;;;;;5038864;28;20765;-71
2022/07/17 11:59:45;;;;;;;4.97;0.40;;;26.20;90.00;;;;;;5034302;28;20940;-69
2022/07/17 12:02:17;;;;;;;4.88;0.50;;;26.40;91.50;;;;;;5035902;28;20048;-69
2022/07/17 12:04:50;;;;;;;;;;;26.60;90.90;;;;;;5036049;28;20056;-70
2022/07/17 12:07:16;;;;;;;;;;;26.60;88.10;;;;;;5034643;28;19927;-71
2022/07/17 12:09:42;;;;;;;6.68;0.40;;;26.20;91.80;;;;;;5028941;28;19928;-71
2022/07/17 12:12:19;;;;;;;6.13;0.60;;;26.50;90.80;;;;;;5036202;28;20051;-70
2022/07/17 12:14:57;;;;;;;4.75;0.40;;;26.40;91.40;;;;;;5035503;28;20089;-69
2022/07/17 12:17:24;;;;;;;4.10;0.30;;;26.50;92.10;;;;;;5031859;28;21455;-72
2022/07/17 12:19:53;;;;;;;2.70;0.38;;;26.70;84.90;;;;;;5019113;28;20352;-72
2022/07/17 12:22:19;;;;;;;3.85;0.43;;;27.00;81.70;;;;;;5036118;28;20186;-71
2022/07/17 12:24:45;;;;;;;2.97;0.30;;;26.90;87.20;;;;;;5002124;28;20055;-71
2022/07/17 12:27:15;;;;;;;6.50;0.40;;;26.70;90.10;;;;;;5035725;28;20778;-72
2022/07/17 12:29:42;;;;;;;5.45;0.50;;;26.30;90.90;;;;;;5031104;28;20029;-71
2022/07/17 12:32:15;;;;;;;3.55;0.40;;;26.30;92.20;;;;;;5014650;28;20539;-73
2022/07/17 12:34:46;;;;;;;2.25;0.30;;;26.40;90.50;;;;;;5015674;28;20618;-71
2022/07/17 12:37:22;;;;;;;4.28;0.40;;;26.40;88.70;;;;;;5018481;28;21073;-69
2022/07/17 12:39:49;;;;;;;4.72;0.30;;;26.50;88.70;;;;;;5011185;28;20048;-69
2022/07/17 12:42:15;;;;;;;3.42;0.52;;;26.60;89.20;;;;;;5037239;28;20075;-73
2022/07/17 12:44:43;;;;;;;2.70;0.40;;;26.40;87.60;;;;;;5015335;28;20736;-70